Strona główna
METAR-TAF:

METAR-TAF

Lotnisko :

Beauvechain, Belgia

Szerokość geograficzna: 50-45N, Długość geograficzna: 004-46E, wysokość: 105 m

Aktualna obserwacja pogody

Raport powstał 45 minut temu, godzina 20:25 UTC
Wiatr 1 kt z kierunków zmiennych
Temperatura 24°C
Wilgotność 50%
Ciśnienie 1023 hPa
Widzialność 10 km lub więcej

METAR: EBBE 222025Z AUTO VRB01KT 9999 NCD 24/13 Q1023 BLU

czas: 23:10 (21:10 UTC)

Prognoza

Raport powstał 5 godziny i 20 minut temu, godzina 15:50 UTC
Prognoza ważna od 22 godzina 19 UTC do 23 godzina 07 UTC
Wiatr 3 kt z kierunków zmiennych
Widzialność 10 km lub więcej
Mało chmury na wysokości 25000 ft

TAF: EBBE 221550Z 2219/2307 VRB03KT 9999 FEW250

Obserwacja i prognoza pogody dla ponad 4000 lotnisk (raport METAR i TAF).

Dostępne stacje oznaczono żółtymi i czerwonymi punktami na mapie.

Najedź kursorem aby zobaczyć nazwę stacji.

Kliknij aby zobaczyć obserwacje i prognozy pogody.

Aby zmienić mapę: kliknij na zielony przycisk z czarnym krzyżykiem, aby powiększyć; na zielony przycisk z myślnikiem, aby pomniejszyć; na zielone strzałki, aby przejść do map sąsiednich.


METAR-TAF: